Time;durP1;ratioP1;P1;durP2;ratioP2;P2;SDS_P1;SDS_P2;PMS_P1;PMS_P2;Temp;Humidity;BMP_temperature;BMP_pressure;BME280_temperature;BME280_humidity;BME280_pressure;Samples;Min_cycle;Max_cycle;Signal;HPM_P1;HPM_P2
2023/08/28 00:02:09;;;;;;;19.60;14.15;;;;;;;16.44;100.00;-18470.00;5026869;28;20099;-77
2023/08/28 00:04:34;;;;;;;21.35;14.85;;;;;;;16.38;100.00;-18468.25;5021689;28;20403;-77
2023/08/28 00:07:00;;;;;;;18.80;14.80;;;;;;;16.40;100.00;-18468.78;5010499;28;20045;-77
2023/08/28 00:09:25;;;;;;;20.95;14.27;;;;;;;16.32;100.00;-18466.75;5010807;28;20118;-76
2023/08/28 00:11:50;;;;;;;24.75;16.50;;;;;;;16.38;100.00;-18468.25;5009655;28;20037;-76
2023/08/28 00:14:16;;;;;;;25.15;15.55;;;;;;;16.63;100.00;-18474.94;5025987;28;20639;-77
2023/08/28 00:16:41;;;;;;;23.77;16.35;;;;;;;16.85;100.00;-18480.94;5027363;28;20064;-77
2023/08/28 00:19:07;;;;;;;22.70;15.75;;;;;;;17.06;100.00;-18486.56;5027869;28;20047;-77
2023/08/28 00:21:32;;;;;;;21.02;15.85;;;;;;;17.10;100.00;-18487.50;5026725;28;20049;-77
2023/08/28 00:23:58;;;;;;;24.02;16.75;;;;;;;17.19;100.00;-18489.97;5027303;28;20033;-77
2023/08/28 00:26:23;;;;;;;22.27;15.98;;;;;;;17.26;100.00;-18491.88;5026638;28;20269;-78
2023/08/28 00:28:48;;;;;;;21.25;14.90;;;;;;;17.17;100.00;-18489.41;5027337;28;20037;-77
2023/08/28 00:31:14;;;;;;;19.73;14.30;;;;;;;17.22;100.00;-18490.66;5027984;28;20072;-77
2023/08/28 00:33:39;;;;;;;20.17;13.50;;;;;;;17.01;100.00;-18485.03;5027093;28;20041;-76
2023/08/28 00:36:04;;;;;;;20.27;13.70;;;;;;;17.04;100.00;-18486.00;5027602;28;20046;-76
2023/08/28 00:38:30;;;;;;;17.42;13.90;;;;;;;17.10;100.00;-18487.50;5027756;28;20048;-77
2023/08/28 00:40:55;;;;;;;20.50;14.55;;;;;;;17.19;100.00;-18489.97;5009350;28;20400;-77
2023/08/28 00:43:20;;;;;;;19.58;12.27;;;;;;;17.18;100.00;-18489.69;5027447;28;20617;-77
2023/08/28 00:45:47;;;;;;;17.17;12.38;;;;;;;16.99;100.00;-18484.50;5022455;28;20039;-77
2023/08/28 00:48:18;;;;;;;17.90;12.98;;;;;;;17.03;100.00;-18485.59;5026178;28;20050;-77
2023/08/28 00:50:44;;;;;;;21.02;13.63;;;;;;;16.91;100.00;-18482.59;5026459;28;20499;-77
2023/08/28 00:53:11;;;;;;;18.65;12.63;;;;;;;17.11;100.00;-18487.78;5027221;28;20034;-77
2023/08/28 00:55:37;;;;;;;18.30;13.98;;;;;;;17.20;100.00;-18490.22;5026923;28;20037;-77
2023/08/28 00:58:03;;;;;;;19.63;14.07;;;;;;;17.06;100.00;-18486.41;5026779;28;20036;-77
2023/08/28 01:00:28;;;;;;;17.88;13.88;;;;;;;17.22;100.00;-18490.78;5009238;28;20095;-77
2023/08/28 01:02:53;;;;;;;17.05;12.95;;;;;;;17.08;100.00;-18487.09;5026659;28;20034;-76
2023/08/28 01:05:24;;;;;;;18.83;13.65;;;;;;;17.16;100.00;-18489.00;5012801;28;20030;-77
2023/08/28 01:08:02;;;;;;;17.30;12.52;;;;;;;17.17;100.00;-18489.28;5024259;28;20037;-77
2023/08/28 01:10:37;;;;;;;19.35;14.02;;;;;;;17.29;100.00;-18492.56;5027627;28;20072;-77
2023/08/28 01:13:25;;;;;;;18.77;13.43;;;;;;;17.26;100.00;-18491.88;5000807;28;20046;-77
2023/08/28 01:15:51;;;;;;;19.05;13.93;;;;;;;17.22;100.00;-18490.78;5022582;28;20544;-77
2023/08/28 01:18:17;;;;;;;19.67;14.23;;;;;;;17.17;100.00;-18489.28;5025666;28;20040;-77
2023/08/28 01:20:47;;;;;;;21.58;14.57;;;;;;;17.20;100.00;-18490.09;5025317;28;20029;-76
2023/08/28 01:23:12;;;;;;;;;;;;;;;17.30;100.00;-18492.97;5023320;28;20041;-77
2023/08/28 01:25:39;;;;;;;19.90;14.82;;;;;;;17.20;100.00;-18490.09;5022857;28;20686;-78
2023/08/28 01:28:04;;;;;;;18.55;14.82;;;;;;;17.12;100.00;-18488.19;5025157;28;20134;-78
2023/08/28 01:30:30;;;;;;;19.15;14.15;;;;;;;17.08;100.00;-18486.97;5025508;28;20034;-78
2023/08/28 01:32:55;;;;;;;18.60;14.70;;;;;;;17.10;100.00;-18487.63;5023370;28;20144;-78
2023/08/28 01:35:29;;;;;;;20.10;13.23;;;;;;;17.07;100.00;-18486.69;5025715;28;20124;-77
2023/08/28 01:38:17;;;;;;;19.17;14.30;;;;;;;17.13;100.00;-18488.31;5021770;28;20048;-77
2023/08/28 01:40:54;;;;;;;19.73;14.18;;;;;;;17.20;100.00;-18490.22;5025122;28;20072;-76
2023/08/28 01:43:22;;;;;;;17.38;13.65;;;;;;;17.11;100.00;-18487.78;5022436;28;20048;-77
2023/08/28 01:45:49;;;;;;;17.47;14.10;;;;;;;17.06;100.00;-18486.56;5001209;28;20046;-77
2023/08/28 01:48:15;;;;;;;17.58;12.90;;;;;;;17.04;100.00;-18485.88;5023446;28;20049;-78
2023/08/28 01:50:40;;;;;;;23.35;13.95;;;;;;;16.87;100.00;-18481.34;5000529;28;20149;-78
2023/08/28 01:53:05;;;;;;;19.98;14.50;;;;;;;16.94;100.00;-18483.28;5008042;28;20045;-77
2023/08/28 01:55:46;;;;;;;20.48;14.00;;;;;;;16.86;100.00;-18481.09;5011023;28;20074;-77
2023/08/28 01:58:15;;;;;;;19.35;13.75;;;;;;;16.91;100.00;-18482.59;5006699;28;20049;-77
2023/08/28 02:00:40;;;;;;;18.48;13.32;;;;;;;16.81;100.00;-18479.72;5025319;28;20049;-77
2023/08/28 02:03:08;;;;;;;17.42;13.25;;;;;;;16.62;100.00;-18474.66;5025337;28;20076;-77
2023/08/28 02:05:33;;;;;;;18.27;12.75;;;;;;;16.56;100.00;-18473.03;5027970;28;20528;-77
2023/08/28 02:07:59;;;;;;;22.13;14.18;;;;;;;16.48;100.00;-18470.97;5025090;28;20068;-77
2023/08/28 02:10:24;;;;;;;20.20;13.50;;;;;;;16.51;100.00;-18471.66;5028878;28;20043;-77
2023/08/28 02:12:50;;;;;;;17.77;12.90;;;;;;;16.40;100.00;-18468.94;5028563;28;20045;-77
2023/08/28 02:15:15;;;;;;;17.67;13.10;;;;;;;16.38;100.00;-18468.25;5028090;28;20041;-77
2023/08/28 02:17:41;;;;;;;17.52;13.65;;;;;;;16.33;100.00;-18467.00;5026136;28;20053;-77
2023/08/28 02:20:08;;;;;;;17.35;12.82;;;;;;;16.35;100.00;-18467.41;5025821;28;20030;-77
2023/08/28 02:22:34;;;;;;;18.23;12.85;;;;;;;16.22;100.00;-18464.00;5027674;28;20048;-77
2023/08/28 02:24:59;;;;;;;18.48;13.60;;;;;;;16.19;100.00;-18463.19;5028711;28;20063;-77
2023/08/28 02:27:25;;;;;;;17.15;12.90;;;;;;;16.08;100.00;-18460.19;5021326;28;20070;-77
2023/08/28 02:29:52;;;;;;;19.13;13.20;;;;;;;15.95;100.00;-18456.91;5028177;28;20508;-76
2023/08/28 02:32:17;;;;;;;17.20;12.82;;;;;;;15.95;100.00;-18456.75;5009360;28;20069;-77
2023/08/28 02:34:43;;;;;;;16.85;12.20;;;;;;;15.81;100.00;-18452.94;5028630;28;20128;-77
2023/08/28 02:37:09;;;;;;;19.38;13.43;;;;;;;15.91;100.00;-18455.66;5027450;28;20131;-77
2023/08/28 02:39:34;;;;;;;23.10;14.90;;;;;;;15.91;100.00;-18455.81;5027219;28;20137;-76
2023/08/28 02:41:59;;;;;;;24.63;16.33;;;;;;;15.99;100.00;-18458.00;5026479;28;20025;-77
2023/08/28 02:44:25;;;;;;;23.75;15.70;;;;;;;15.84;100.00;-18453.88;5028103;28;20049;-77
2023/08/28 02:46:50;;;;;;;22.70;14.55;;;;;;;15.84;100.00;-18453.75;5028562;28;20076;-78
2023/08/28 02:49:15;;;;;;;18.23;14.35;;;;;;;15.78;100.00;-18452.38;5030354;28;20392;-77
2023/08/28 02:51:41;;;;;;;20.83;15.85;;;;;;;15.93;100.00;-18456.34;5027707;28;20074;-77
2023/08/28 02:54:06;;;;;;;19.85;14.85;;;;;;;15.95;100.00;-18456.75;5011975;28;20037;-77
2023/08/28 02:56:37;;;;;;;20.15;14.57;;;;;;;16.02;100.00;-18458.66;5026999;28;20436;-77
2023/08/28 02:59:03;;;;;;;19.98;13.65;;;;;;;15.91;100.00;-18455.81;5027565;28;20100;-77
2023/08/28 03:01:28;;;;;;;21.50;14.02;;;;;;;15.90;100.00;-18455.38;5030315;28;20038;-76
2023/08/28 03:03:53;;;;;;;22.30;15.98;;;;;;;16.00;100.00;-18458.25;5029602;28;20194;-77
2023/08/28 03:06:19;;;;;;;22.60;16.48;;;;;;;16.08;100.00;-18460.19;5025479;28;20034;-77
2023/08/28 03:08:44;;;;;;;23.35;15.35;;;;;;;16.00;100.00;-18458.25;5011951;28;20053;-77
2023/08/28 03:11:10;;;;;;;24.83;16.67;;;;;;;16.07;100.00;-18459.91;5028553;28;20049;-77
2023/08/28 03:13:35;;;;;;;22.70;15.93;;;;;;;16.11;100.00;-18461.00;5029454;28;20045;-76
2023/08/28 03:16:00;;;;;;;23.88;17.23;;;;;;;16.10;100.00;-18460.84;5027643;28;20408;-77
2023/08/28 03:18:26;;;;;;;28.40;19.15;;;;;;;16.14;100.00;-18461.94;5028690;28;20373;-78
2023/08/28 03:20:51;;;;;;;21.52;15.40;;;;;;;16.06;100.00;-18459.75;5029829;28;20033;-76
2023/08/28 03:23:17;;;;;;;20.48;13.63;;;;;;;15.85;100.00;-18454.03;5029788;28;20087;-77
2023/08/28 03:25:43;;;;;;;22.95;16.20;;;;;;;15.85;100.00;-18454.16;5028037;28;20037;-78
2023/08/28 03:28:09;;;;;;;21.27;15.23;;;;;;;15.89;100.00;-18455.13;5027846;28;20048;-78
2023/08/28 03:30:35;;;;;;;20.88;15.30;;;;;;;15.85;100.00;-18454.16;5030217;28;20127;-77
2023/08/28 03:33:00;;;;;;;22.17;14.40;;;;;;;15.85;100.00;-18454.16;5011890;28;20540;-77
2023/08/28 03:35:26;;;;;;;24.45;15.13;;;;;;;15.82;100.00;-18453.19;5029118;28;20060;-77
2023/08/28 03:37:51;;;;;;;20.25;14.50;;;;;;;15.63;100.00;-18448.13;5028672;28;20124;-78
2023/08/28 03:40:16;;;;;;;20.30;14.48;;;;;;;15.64;100.00;-18448.56;5030429;28;20034;-77
2023/08/28 03:42:42;;;;;;;21.83;15.43;;;;;;;15.56;100.00;-18446.34;5026162;28;20531;-77
2023/08/28 03:45:08;;;;;;;24.60;15.52;;;;;;;15.61;100.00;-18447.72;5025453;28;20038;-77
2023/08/28 03:47:33;;;;;;;21.60;14.90;;;;;;;15.54;100.00;-18445.94;5025432;28;20050;-77
2023/08/28 03:49:58;;;;;;;23.08;15.40;;;;;;;15.60;100.00;-18447.31;5026518;28;20064;-76
2023/08/28 03:52:24;;;;;;;21.75;15.52;;;;;;;15.72;100.00;-18450.59;5028137;28;20152;-77
2023/08/28 03:54:49;;;;;;;24.33;15.57;;;;;;;15.64;100.00;-18448.41;5026169;28;20525;-76
2023/08/28 03:57:14;;;;;;;22.80;15.80;;;;;;;15.67;100.00;-18449.38;5024851;28;20471;-76
2023/08/28 03:59:40;;;;;;;20.42;15.40;;;;;;;15.64;100.00;-18448.56;5026549;28;20049;-77
2023/08/28 04:02:05;;;;;;;24.80;16.63;;;;;;;15.67;100.00;-18449.22;5026663;28;20103;-77
2023/08/28 04:04:31;;;;;;;25.25;16.23;;;;;;;15.75;100.00;-18451.56;5027282;28;20124;-76
2023/08/28 04:07:02;;;;;;;24.35;15.55;;;;;;;15.32;100.00;-18440.06;5023991;28;20076;-76
2023/08/28 04:09:27;;;;;;;27.30;17.73;;;;;;;15.21;100.00;-18436.94;5026788;28;20590;-77
2023/08/28 04:11:52;;;;;;;25.52;17.95;;;;;;;15.21;100.00;-18437.06;5026031;28;20037;-76
2023/08/28 04:14:18;;;;;;;25.90;18.13;;;;;;;15.37;100.00;-18441.31;5026064;28;20046;-77
2023/08/28 04:16:43;;;;;;;28.60;17.83;;;;;;;15.34;100.00;-18440.47;5023410;28;20048;-77
2023/08/28 04:19:09;;;;;;;28.20;19.23;;;;;;;15.44;100.00;-18443.22;5031788;28;20033;-76
2023/08/28 04:21:34;;;;;;;32.08;19.77;;;;;;;15.37;100.00;-18441.31;5040674;28;20091;-76
2023/08/28 04:23:59;;;;;;;27.50;18.50;;;;;;;15.40;100.00;-18442.13;5029245;28;20049;-77
2023/08/28 04:26:25;;;;;;;30.60;20.92;;;;;;;15.39;100.00;-18441.72;5029223;28;20110;-76
2023/08/28 04:28:50;;;;;;;32.28;22.30;;;;;;;15.31;100.00;-18439.66;5028654;28;20045;-78
2023/08/28 04:31:16;;;;;;;31.00;21.30;;;;;;;15.44;100.00;-18443.22;5005391;28;20050;-77
2023/08/28 04:33:42;;;;;;;26.70;18.95;;;;;;;15.33;100.00;-18440.34;5022943;28;20041;-76
2023/08/28 04:36:07;;;;;;;29.65;19.55;;;;;;;15.38;100.00;-18441.56;5025512;28;20041;-77
2023/08/28 04:38:35;;;;;;;33.50;21.95;;;;;;;15.42;100.00;-18442.66;5025688;28;20136;-77
2023/08/28 04:41:01;;;;;;;34.33;22.00;;;;;;;15.62;100.00;-18448.00;5025732;28;20630;-76
2023/08/28 04:43:26;;;;;;;31.55;20.08;;;;;;;15.50;100.00;-18444.84;5025292;28;20137;-77
2023/08/28 04:45:51;;;;;;;31.73;20.63;;;;;;;15.33;100.00;-18440.22;5023188;28;20042;-77
2023/08/28 04:48:18;;;;;;;32.67;21.25;;;;;;;15.46;100.00;-18443.63;5024601;28;20049;-78
2023/08/28 04:50:43;;;;;;;34.65;20.65;;;;;;;15.69;100.00;-18449.91;5019943;28;21004;-77
2023/08/28 04:53:09;;;;;;;34.90;21.10;;;;;;;15.63;100.00;-18448.13;5025175;28;20049;-78
2023/08/28 04:55:37;;;;;;;32.92;20.95;;;;;;;15.62;100.00;-18448.00;5025352;28;20492;-77
2023/08/28 04:58:03;;;;;;;32.15;22.00;;;;;;;15.66;100.00;-18448.97;5025735;28;20069;-77
2023/08/28 05:00:28;;;;;;;34.20;21.50;;;;;;;15.77;100.00;-18452.13;5006550;28;20057;-78
2023/08/28 05:02:54;;;;;;;35.88;23.38;;;;;;;15.88;100.00;-18454.84;5024785;28;20042;-77
2023/08/28 05:05:19;;;;;;;33.35;20.73;;;;;;;15.46;100.00;-18443.63;5008704;28;20037;-78
2023/08/28 05:07:44;;;;;;;34.72;23.38;;;;;;;15.57;100.00;-18446.78;5025616;28;20041;-78
2023/08/28 05:10:10;;;;;;;35.08;22.27;;;;;;;15.67;100.00;-18449.38;5020795;28;20079;-77
2023/08/28 05:12:35;;;;;;;33.10;21.40;;;;;;;15.66;100.00;-18448.97;5025535;28;20540;-76
2023/08/28 05:15:01;;;;;;;37.97;21.85;;;;;;;15.60;100.00;-18447.31;5025163;28;20040;-76
2023/08/28 05:17:26;;;;;;;34.67;22.65;;;;;;;15.73;100.00;-18450.88;5025983;28;20069;-76
2023/08/28 05:19:51;;;;;;;34.28;20.83;;;;;;;15.67;100.00;-18449.22;5007663;28;20037;-76
2023/08/28 05:22:17;;;;;;;31.95;19.70;;;;;;;15.78;100.00;-18452.38;5020084;28;20132;-76
2023/08/28 05:24:42;;;;;;;33.85;20.35;;;;;;;15.70;100.00;-18450.19;5025988;28;20713;-76
2023/08/28 05:27:08;;;;;;;37.60;22.60;;;;;;;15.82;100.00;-18453.34;5022842;28;20050;-76
2023/08/28 05:29:33;;;;;;;35.28;24.17;;;;;;;16.07;100.00;-18460.03;5026816;28;20069;-76
2023/08/28 05:31:59;;;;;;;36.00;22.63;;;;;;;16.05;100.00;-18459.34;5025526;28;20045;-76
2023/08/28 05:34:24;;;;;;;35.17;23.00;;;;;;;16.10;100.00;-18460.72;5010059;28;20119;-76
2023/08/28 05:36:49;;;;;;;38.78;24.58;;;;;;;16.19;100.00;-18463.31;5005001;28;20041;-77
2023/08/28 05:39:15;;;;;;;38.30;24.23;;;;;;;15.99;100.00;-18458.00;5025774;28;20058;-77
2023/08/28 05:41:40;;;;;;;42.95;25.90;;;;;;;16.16;100.00;-18462.38;5012747;28;20049;-76
2023/08/28 05:44:05;;;;;;;39.70;23.60;;;;;;;16.11;100.00;-18461.00;5026880;28;20052;-76
2023/08/28 05:46:31;;;;;;;42.88;27.48;;;;;;;16.34;100.00;-18467.28;5024609;28;20054;-77
2023/08/28 05:48:56;;;;;;;42.70;26.92;;;;;;;16.45;100.00;-18470.28;5025701;28;20045;-77
2023/08/28 05:51:21;;;;;;;37.55;23.70;;;;;;;16.48;100.00;-18470.97;5024089;28;20524;-77
2023/08/28 05:53:47;;;;;;;40.35;25.27;;;;;;;16.56;100.00;-18473.16;5022696;28;20064;-77
2023/08/28 05:56:12;;;;;;;40.38;25.10;;;;;;;16.54;100.00;-18472.47;5024878;28;20049;-77
2023/08/28 05:58:37;;;;;;;39.97;26.77;;;;;;;16.67;100.00;-18476.03;5021248;28;20041;-76
2023/08/28 06:01:03;;;;;;;43.53;29.25;;;;;;;16.64;100.00;-18475.22;5019882;28;20064;-77
2023/08/28 06:03:28;;;;;;;45.67;27.95;;;;;;;16.82;100.00;-18480.00;5025527;28;20533;-77
2023/08/28 06:05:55;;;;;;;42.03;27.88;;;;;;;16.96;100.00;-18483.69;5026497;28;20048;-77
2023/08/28 06:08:20;;;;;;;44.42;28.73;;;;;;;16.99;100.00;-18484.50;5015098;28;20033;-77
2023/08/28 06:10:45;;;;;;;40.40;28.02;;;;;;;17.14;100.00;-18488.59;5023143;28;20436;-77
2023/08/28 06:13:11;;;;;;;42.92;28.67;;;;;;;17.29;100.00;-18492.69;5009622;28;20061;-77
2023/08/28 06:15:37;;;;;;;41.90;26.23;;;;;;;17.26;100.00;-18491.88;5023108;28;20652;-77
2023/08/28 06:18:04;;;;;;;43.03;28.38;;;;;;;17.35;100.00;-18494.34;5025226;28;20052;-77
2023/08/28 06:20:30;;;;;;;42.05;28.35;;;;;;;16.60;100.00;-18474.13;5027134;28;20041;-77
2023/08/28 06:22:56;;;;;;;40.30;27.90;;;;;;;16.70;100.00;-18476.84;5026271;28;20104;-77
2023/08/28 06:25:22;;;;;;;43.50;28.77;;;;;;;16.77;100.00;-18478.75;5024110;28;20068;-77
2023/08/28 06:27:48;;;;;;;42.55;26.15;;;;;;;16.70;100.00;-18476.97;5021765;28;20124;-77
2023/08/28 06:30:13;;;;;;;40.42;25.77;;;;;;;16.88;100.00;-18481.63;5023700;28;20743;-77
2023/08/28 06:32:39;;;;;;;39.65;27.17;;;;;;;16.92;100.00;-18482.88;5009246;28;20672;-77
2023/08/28 06:35:05;;;;;;;37.88;25.73;;;;;;;17.65;100.00;-18502.25;5008314;28;20034;-77
2023/08/28 06:37:30;;;;;;;39.67;25.98;;;;;;;17.71;100.00;-18503.75;5026466;28;20045;-77
2023/08/28 06:39:55;;;;;;;38.72;26.08;;;;;;;17.68;100.00;-18503.06;5024409;28;20049;-77
2023/08/28 06:42:21;;;;;;;38.08;27.65;;;;;;;17.67;100.00;-18502.78;5025242;28;20065;-77
2023/08/28 06:44:46;;;;;;;39.25;25.15;;;;;;;17.77;100.00;-18505.53;5023161;28;20037;-77
2023/08/28 06:47:13;;;;;;;38.58;26.35;;;;;;;17.88;100.00;-18508.38;5021765;28;20046;-77
2023/08/28 06:49:38;;;;;;;37.72;26.20;;;;;;;18.02;100.00;-18512.22;5016584;28;20120;-77
2023/08/28 06:52:04;;;;;;;37.22;25.17;;;;;;;18.18;100.00;-18516.31;5021319;28;20049;-76
2023/08/28 06:54:29;;;;;;;30.92;21.83;;;;;;;18.14;100.00;-18515.34;5027762;28;20049;-76
2023/08/28 06:56:55;;;;;;;31.33;21.85;;;;;;;18.07;100.00;-18513.44;5026999;28;20041;-76
2023/08/28 06:59:20;;;;;;;33.45;24.60;;;;;;;18.19;100.00;-18516.56;5010987;28;20046;-77
2023/08/28 07:01:45;;;;;;;29.55;22.33;;;;;;;18.00;100.00;-18511.66;5026159;28;20034;-76
2023/08/28 07:04:11;;;;;;;31.80;23.60;;;;;;;18.13;100.00;-18514.94;5029775;28;20576;-77
2023/08/28 07:06:36;;;;;;;28.52;21.98;;;;;;;18.23;100.00;-18517.66;5029565;28;20038;-77
2023/08/28 07:09:01;;;;;;;30.48;20.70;;;;;;;18.34;100.00;-18520.66;5029122;28;20041;-76
2023/08/28 07:11:27;;;;;;;26.55;19.88;;;;;;;18.45;100.00;-18523.53;5012004;28;20037;-77
2023/08/28 07:13:53;;;;;;;24.35;19.77;;;;;;;18.66;100.00;-18529.25;5028883;28;20524;-77
2023/08/28 07:16:18;;;;;;;25.67;18.92;;;;;;;18.81;100.00;-18533.06;5028179;28;20034;-76
2023/08/28 07:18:44;;;;;;;25.13;17.63;;;;;;;18.85;100.00;-18534.31;5027837;28;20045;-76
2023/08/28 07:21:09;;;;;;;29.00;19.02;;;;;;;18.93;100.00;-18536.34;5028956;28;20040;-76
2023/08/28 07:23:36;;;;;;;25.48;16.67;;;;;;;18.96;100.00;-18537.16;5012129;28;20746;-77
2023/08/28 07:26:02;;;;;;;22.33;15.48;;;;;;;19.05;100.00;-18539.50;5021019;28;20049;-77
2023/08/28 07:28:28;;;;;;;22.33;15.05;;;;;;;19.20;100.00;-18543.56;5021963;28;20065;-76
2023/08/28 07:31:02;;;;;;;23.25;18.63;;;;;;;19.38;100.00;-18548.34;5022703;28;20117;-76
2023/08/28 07:33:27;;;;;;;21.33;16.75;;;;;;;19.35;100.00;-18547.53;5019824;28;20049;-76
2023/08/28 07:35:53;;;;;;;20.40;16.90;;;;;;;19.50;100.00;-18551.47;5021193;28;20037;-77
2023/08/28 07:38:18;;;;;;;19.75;15.65;;;;;;;19.46;100.00;-18550.53;5019840;28;20085;-76
2023/08/28 07:40:46;;;;;;;17.65;14.48;;;;;;;19.49;100.00;-18551.34;5018397;28;20711;-76
2023/08/28 07:43:12;;;;;;;18.77;13.97;;;;;;;19.55;100.00;-18552.97;5016614;28;20119;-76
2023/08/28 07:45:37;;;;;;;18.75;13.60;;;;;;;19.69;100.00;-18556.53;5015438;28;20792;-76
2023/08/28 07:48:03;;;;;;;16.65;12.60;;;;;;;19.82;100.00;-18560.06;5020339;28;20045;-76
2023/08/28 07:50:30;;;;;;;16.10;10.98;;;;;;;19.83;100.00;-18560.34;5018981;28;20516;-76
2023/08/28 07:52:56;;;;;;;15.38;11.82;;;;;;;19.98;100.00;-18564.28;5001871;28;20044;-77
2023/08/28 07:55:21;;;;;;;15.85;12.07;;;;;;;20.00;100.00;-18564.97;5018580;28;20416;-77
2023/08/28 07:57:46;;;;;;;16.85;12.90;;;;;;;20.14;100.00;-18568.63;5018747;28;20041;-77
2023/08/28 08:00:13;;;;;;;14.88;11.70;;;;;;;20.12;100.00;-18568.09;5015681;28;20030;-76
2023/08/28 08:02:40;;;;;;;15.10;11.25;;;;;;;20.24;100.00;-18571.22;5017306;28;20045;-77
2023/08/28 08:05:06;;;;;;;16.23;11.73;;;;;;;19.95;100.00;-18563.59;5015644;28;20049;-76
2023/08/28 08:07:34;;;;;;;16.90;12.07;;;;;;;19.97;100.00;-18564.16;5015330;28;20049;-77
2023/08/28 08:10:00;;;;;;;15.70;11.93;;;;;;;20.03;100.00;-18565.63;5018848;28;20107;-77
2023/08/28 08:12:26;;;;;;;17.38;12.77;;;;;;;20.35;100.00;-18574.09;4995829;28;20093;-77
2023/08/28 08:14:52;;;;;;;14.27;11.38;;;;;;;20.50;100.00;-18578.28;5014344;28;20409;-76
2023/08/28 08:17:18;;;;;;;15.85;10.27;;;;;;;20.44;100.00;-18576.66;4996576;28;20599;-77
2023/08/28 08:19:43;;;;;;;13.73;10.75;;;;;;;20.46;100.00;-18577.06;5015698;28;20053;-76
2023/08/28 08:22:08;;;;;;;14.88;11.05;;;;;;;20.50;100.00;-18578.28;5015139;28;20045;-76
2023/08/28 08:24:33;;;;;;;13.85;9.88;;;;;;;20.46;100.00;-18577.06;5019380;28;20047;-77
2023/08/28 08:26:59;;;;;;;13.27;10.02;;;;;;;20.40;100.00;-18575.56;5018730;28;20179;-76
2023/08/28 08:29:25;;;;;;;13.02;10.32;;;;;;;20.58;100.00;-18580.22;5017553;28;20142;-77
2023/08/28 08:31:51;;;;;;;11.10;8.75;;;;;;;20.59;100.00;-18580.63;5019073;28;20089;-76
2023/08/28 08:34:18;;;;;;;13.07;8.10;;;;;;;20.83;100.00;-18586.88;5016109;28;20042;-76
2023/08/28 08:36:43;;;;;;;11.27;9.00;;;;;;;20.86;100.00;-18587.81;5013091;28;20142;-77
2023/08/28 08:39:09;;;;;;;9.50;8.02;;;;;;;20.96;100.00;-18590.53;5019005;28;20107;-76
2023/08/28 08:41:34;;;;;;;11.65;9.00;;;;;;;21.09;100.00;-18593.81;5018797;28;20049;-77
2023/08/28 08:44:00;;;;;;;8.90;6.45;;;;;;;20.99;100.00;-18591.09;5006325;28;20033;-77
2023/08/28 08:46:26;;;;;;;5.38;3.20;;;;;;;21.13;100.00;-18595.03;5024375;28;20033;-77
2023/08/28 08:48:54;;;;;;;7.63;5.28;;;;;;;21.55;100.00;-18606.03;4997917;28;20071;-77
2023/08/28 08:51:24;;;;;;;8.02;6.63;;;;;;;21.01;100.00;-18591.63;5007950;28;20513;-77
2023/08/28 08:54:04;;;;;;;7.20;4.80;;;;;;;20.99;100.00;-18591.09;5017742;28;20057;-77
2023/08/28 08:56:31;;;;;;;3.78;3.28;;;;;;;21.03;100.00;-18592.19;4995073;28;20034;-77
2023/08/28 08:58:58;;;;;;;4.47;3.35;;;;;;;21.21;100.00;-18596.94;5012211;28;20041;-77
2023/08/28 09:01:25;;;;;;;7.55;5.13;;;;;;;21.23;100.00;-18597.63;5017061;28;20045;-77
2023/08/28 09:03:51;;;;;;;8.38;3.35;;;;;;;21.32;100.00;-18600.06;5018834;28;20707;-77
2023/08/28 09:06:16;;;;;;;5.35;4.43;;;;;;;21.58;100.00;-18606.88;5018862;28;20052;-77
2023/08/28 09:08:42;;;;;;;4.75;3.25;;;;;;;21.56;100.00;-18606.31;4998811;28;20064;-77
2023/08/28 09:11:08;;;;;;;4.63;3.35;;;;;;;21.44;98.80;-18603.19;5011599;28;20132;-77
2023/08/28 09:13:38;;;;;;;4.57;3.17;;;;;;;21.53;100.00;-18605.50;5016714;28;20790;-77
2023/08/28 09:16:04;;;;;;;6.47;3.90;;;;;;;21.33;100.00;-18600.34;5011337;28;20073;-77
2023/08/28 09:18:30;;;;;;;6.53;3.88;;;;;;;21.40;100.00;-18602.09;5015694;28;20072;-78
2023/08/28 09:21:09;;;;;;;8.27;4.45;;;;;;;21.57;100.00;-18606.72;5019169;28;20059;-77
2023/08/28 09:23:34;;;;;;;;;;;;;;;21.66;100.00;-18608.91;5015992;28;20034;-77
2023/08/28 09:26:00;;;;;;;5.10;3.90;;;;;;;21.66;100.00;-18609.03;5015342;28;20284;-77
2023/08/28 09:28:26;;;;;;;5.82;2.88;;;;;;;21.50;98.39;-18604.69;5016247;28;20049;-78
2023/08/28 09:30:52;;;;;;;6.25;3.22;;;;;;;21.50;100.00;-18604.69;4998681;28;20033;-77
2023/08/28 09:33:17;;;;;;;6.68;3.35;;;;;;;21.54;100.00;-18605.78;5013765;28;20069;-77
2023/08/28 09:35:43;;;;;;;4.72;2.70;;;;;;;21.69;96.30;-18609.84;5013089;28;20137;-77
2023/08/28 09:38:10;;;;;;;4.47;3.15;;;;;;;21.69;97.75;-18609.72;5019426;28;20736;-77
2023/08/28 09:40:41;;;;;;;6.18;3.28;;;;;;;21.67;98.26;-18609.19;5006097;28;20132;-77
2023/08/28 09:43:15;;;;;;;5.45;2.85;;;;;;;21.88;94.85;-18614.75;5026031;28;20049;-77
2023/08/28 09:45:42;;;;;;;2.15;1.45;;;;;;;21.92;87.12;-18615.81;5014711;28;20544;-77
2023/08/28 09:48:08;;;;;;;4.65;2.00;;;;;;;21.93;86.44;-18616.09;5024355;28;20389;-78
2023/08/28 09:50:37;;;;;;;4.60;2.60;;;;;;;22.11;88.25;-18621.00;5026398;28;20048;-78
2023/08/28 09:53:12;;;;;;;;;;;;;;;22.12;88.65;-18621.25;5000562;28;20041;-77
2023/08/28 09:55:51;;;;;;;5.47;3.00;;;;;;;22.12;86.01;-18621.13;5023371;28;19924;-77
2023/08/28 09:58:17;;;;;;;;;;;;;;;22.22;89.42;-18623.97;4991527;28;20054;-77
2023/08/28 10:00:43;;;;;;;4.82;2.90;;;;;;;22.14;85.89;-18621.81;5022699;28;20020;-78
2023/08/28 10:03:13;;;;;;;2.88;1.92;;;;;;;22.45;88.68;-18629.97;5027806;28;20164;-78
2023/08/28 10:05:41;;;;;;;4.80;2.00;;;;;;;22.67;84.73;-18635.94;5025790;28;20498;-78
2023/08/28 10:08:11;;;;;;;4.00;1.73;;;;;;;22.74;81.31;-18637.69;5018000;28;20748;-78
2023/08/28 10:10:40;;;;;;;3.60;2.60;;;;;;;22.88;79.06;-18641.38;5010929;28;20118;-78
2023/08/28 10:13:09;;;;;;;2.97;1.70;;;;;;;22.80;80.18;-18639.31;5026793;28;20041;-78
2023/08/28 10:15:41;;;;;;;3.33;1.88;;;;;;;22.93;84.36;-18642.72;5004709;28;20684;-78
2023/08/28 10:18:17;;;;;;;4.32;2.22;;;;;;;22.84;73.38;-18640.28;5007056;28;20049;-77
2023/08/28 10:20:44;;;;;;;4.15;1.50;;;;;;;22.53;71.76;-18632.28;5026994;28;20080;-78
2023/08/28 10:23:10;;;;;;;3.17;2.13;;;;;;;22.57;75.50;-18633.22;5029732;28;20044;-78
2023/08/28 10:25:36;;;;;;;2.72;1.77;;;;;;;22.65;78.99;-18635.38;5029611;28;20041;-77
2023/08/28 10:28:03;;;;;;;3.00;1.80;;;;;;;22.80;76.08;-18639.31;5025128;28;20042;-78
2023/08/28 10:30:30;;;;;;;4.65;1.92;;;;;;;22.80;78.19;-18639.19;5026457;28;20042;-78
2023/08/28 10:32:56;;;;;;;4.50;2.35;;;;;;;22.70;72.35;-18636.75;5029929;28;20103;-79
2023/08/28 10:35:22;;;;;;;3.55;2.03;;;;;;;22.90;77.97;-18641.91;5027999;28;20045;-77
2023/08/28 10:37:49;;;;;;;2.53;1.70;;;;;;;23.24;84.48;-18650.88;5028345;28;20119;-78
2023/08/28 10:40:17;;;;;;;3.53;2.03;;;;;;;23.17;79.52;-18649.25;5029951;28;20049;-77
2023/08/28 10:42:44;;;;;;;4.55;2.80;;;;;;;22.80;81.19;-18639.19;5030177;28;20037;-77
2023/08/28 10:45:09;;;;;;;5.38;2.70;;;;;;;22.73;84.68;-18637.56;5028214;28;20370;-78
2023/08/28 10:47:35;;;;;;;2.78;1.63;;;;;;;22.81;80.13;-18639.47;5027133;28;20056;-78
2023/08/28 10:50:01;;;;;;;3.50;2.85;;;;;;;23.08;74.93;-18646.78;5026884;28;20044;-77
2023/08/28 10:52:28;;;;;;;3.30;1.98;;;;;;;23.31;75.26;-18652.75;5029741;28;20041;-78
2023/08/28 10:54:57;;;;;;;4.75;2.20;;;;;;;23.16;74.86;-18648.97;5024201;28;20396;-78
2023/08/28 10:57:28;;;;;;;2.90;1.90;;;;;;;22.73;76.59;-18637.56;5029114;28;20123;-78
2023/08/28 10:59:55;;;;;;;4.10;2.50;;;;;;;22.98;78.03;-18644.06;5025087;28;20393;-78
2023/08/28 11:02:21;;;;;;;5.38;2.28;;;;;;;23.11;79.75;-18647.59;5025618;28;20590;-77
2023/08/28 11:04:47;;;;;;;5.50;2.08;;;;;;;23.38;78.38;-18654.66;5023812;28;20132;-77